Time;durP1;ratioP1;P1;durP2;ratioP2;P2;SDS_P1;SDS_P2;PMS_P1;PMS_P2;Temp;Humidity;BMP_temperature;BMP_pressure;BME280_temperature;BME280_humidity;BME280_pressure;Samples;Min_cycle;Max_cycle;Signal;HPM_P1;HPM_P2
2022/06/19 00:07:18;;;;;;;20.50;4.65;;;;;;;23.38;68.73;99721.50;20820142;28;20422;-67
2022/06/19 00:17:21;;;;;;;17.45;4.28;;;;;;;22.87;72.27;99711.28;20817127;28;20509;-67
2022/06/19 00:27:24;;;;;;;17.95;4.43;;;;;;;22.83;74.36;99691.13;20817416;28;20140;-69
2022/06/19 00:37:27;;;;;;;19.60;4.10;;;;;;;22.69;74.66;99678.84;20817433;28;20451;-67
2022/06/19 00:47:35;;;;;;;13.93;3.75;;;;;;;22.47;76.20;99660.97;20817235;28;20054;-67
2022/06/19 00:57:40;;;;;;;14.77;4.10;;;;;;;22.32;76.43;99654.13;20816382;28;20059;-67
2022/06/19 01:07:44;;;;;;;22.40;4.85;;;;;;;21.98;77.75;99662.84;20816039;28;20095;-68
2022/06/19 01:17:49;;;;;;;17.67;4.37;;;;;;;21.76;79.86;99662.75;20814870;28;20057;-67
2022/06/19 01:38:20;;;;;;;18.60;5.45;;;;;;;21.62;81.30;99658.44;20830328;28;20053;-68
2022/06/19 01:48:26;;;;;;;22.17;5.85;;;;;;;21.09;84.42;99675.59;20830283;28;20041;-70
2022/06/19 01:58:32;;;;;;;22.83;5.32;;;;;;;21.05;88.98;99666.09;20828861;28;20060;-70
2022/06/19 02:08:35;;;;;;;15.32;4.70;;;;;;;21.06;90.46;99654.50;20828389;28;20053;-70
2022/06/19 02:18:42;;;;;;;13.05;5.28;;;;;;;21.14;90.32;99654.81;20826898;28;20103;-71
2022/06/19 02:28:48;;;;;;;15.88;5.68;;;;;;;21.10;92.09;99638.19;20827786;28;20049;-70
2022/06/19 02:38:50;;;;;;;15.70;4.93;;;;;;;21.14;91.76;99623.72;20824170;28;20054;-70
2022/06/19 02:48:51;;;;;;;14.13;5.05;;;;;;;20.88;92.98;99628.22;20825114;28;20055;-70
2022/06/19 02:58:53;;;;;;;16.38;5.13;;;;;;;20.73;93.71;99610.69;20824123;28;20525;-70
2022/06/19 03:08:54;;;;;;;10.38;4.75;;;;;;;20.66;95.40;99614.75;20823422;28;20053;-70
2022/06/19 03:18:57;;;;;;;15.25;6.38;;;;;;;20.45;96.92;99595.75;20821314;28;20063;-69
2022/06/19 03:28:59;;;;;;;15.80;5.20;;;;;;;20.35;97.97;99602.66;20821516;28;20057;-70
2022/06/19 03:39:00;;;;;;;13.98;5.30;;;;;;;20.39;97.80;99598.84;20820558;28;20049;-69
2022/06/19 03:49:03;;;;;;;16.75;5.90;;;;;;;20.25;97.90;99603.28;20819112;28;20054;-69
2022/06/19 03:59:07;;;;;;;13.45;4.82;;;;;;;20.54;96.88;99612.91;20819263;28;20045;-69
2022/06/19 04:09:12;;;;;;;;;;;;;;;20.91;95.37;99617.38;20818522;28;20092;-70
2022/06/19 04:19:13;;;;;;;13.53;5.33;;;;;;;21.36;94.63;99614.19;20816792;28;19921;-69
2022/06/19 04:29:16;;;;;;;18.55;5.45;;;;;;;21.71;92.16;99612.47;20817504;28;20467;-70
2022/06/19 04:39:18;;;;;;;11.55;5.35;;;;;;;23.01;85.54;99602.47;20816434;28;20526;-70
2022/06/19 04:49:20;;;;;;;14.90;5.28;;;;;;;23.82;80.87;99596.81;20816453;28;20087;-70
2022/06/19 04:59:21;;;;;;;15.02;5.13;;;;;;;23.52;81.91;99622.38;20816082;28;20049;-69
2022/06/19 05:09:23;;;;;;;14.32;5.20;;;;;;;23.77;81.86;99611.41;20827598;28;20053;-69
2022/06/19 05:19:25;;;;;;;22.23;5.53;;;;;;;24.16;74.68;99617.06;20830829;28;20053;-71
2022/06/19 05:29:26;;;;;;;19.50;4.95;;;;;;;24.47;71.03;99604.63;20831284;28;20517;-70
2022/06/19 05:39:34;;;;;;;13.88;4.85;;;;;;;24.75;67.68;99607.59;20829888;28;20045;-70
2022/06/19 05:49:36;;;;;;;16.23;5.40;;;;;;;24.83;66.21;99632.72;20823991;28;20054;-70
2022/06/19 05:59:38;;;;;;;14.25;4.43;;;;;;;25.02;65.58;99631.94;20770568;28;20064;-69
2022/06/19 06:09:39;;;;;;;20.00;5.38;;;;;;;25.39;61.50;99634.03;20745264;28;20133;-67
2022/06/19 06:19:41;;;;;;;20.35;6.22;;;;;;;25.65;62.08;99620.16;20742783;28;20050;-66
2022/06/19 06:29:42;;;;;;;15.70;6.22;;;;;;;26.00;62.71;99604.38;20745572;28;20053;-67
2022/06/19 06:39:44;;;;;;;19.67;5.03;;;;;;;26.33;59.08;99634.41;20743542;28;20084;-66
2022/06/19 06:49:45;;;;;;;18.05;5.15;;;;;;;26.73;57.93;99604.66;20743896;28;20049;-66
2022/06/19 06:59:47;;;;;;;19.42;6.07;;;;;;;27.17;56.91;99621.06;20742447;28;20053;-70
2022/06/19 07:09:48;;;;;;;22.70;6.60;;;;;;;27.57;55.75;99615.28;20760516;28;20112;-67
2022/06/19 07:19:50;;;;;;;19.45;6.10;;;;;;;28.00;56.41;99604.78;20800055;28;20049;-67
2022/06/19 07:29:51;;;;;;;21.13;6.20;;;;;;;28.36;53.34;99595.69;20732234;28;20045;-67
2022/06/19 07:39:53;;;;;;;21.55;6.82;;;;;;;28.95;50.57;99589.66;20769610;28;20505;-67
2022/06/19 07:50:09;;;;;;;16.77;6.53;;;;;;;29.27;46.82;99592.44;20812234;28;20041;-67
2022/06/19 08:00:16;;;;;;;19.33;6.40;;;;;;;29.64;43.95;99596.63;20811391;28;20230;-67
2022/06/19 08:10:35;;;;;;;14.85;6.13;;;;;;;29.96;41.41;99594.97;20810590;28;20049;-67
2022/06/19 08:20:38;;;;;;;15.70;6.15;;;;;;;30.17;39.09;99576.41;20808917;28;20049;-67
2022/06/19 08:30:41;;;;;;;20.10;6.40;;;;;;;30.56;39.52;99597.28;20809325;28;20042;-67
2022/06/19 08:41:20;;;;;;;12.80;6.10;;;;;;;31.10;38.12;99582.09;20808990;28;20535;-67
2022/06/19 08:51:31;;;;;;;20.85;7.07;;;;;;;30.92;39.23;99585.06;20810840;28;20049;-67
2022/06/19 09:01:43;;;;;;;15.38;6.15;;;;;;;31.22;37.58;99565.47;20808326;28;20098;-67
2022/06/19 09:11:54;;;;;;;13.10;5.85;;;;;;;31.44;37.93;99567.41;20767828;28;20045;-67
2022/06/19 09:22:27;;;;;;;16.10;7.03;;;;;;;32.13;36.43;99559.28;20763520;28;20053;-67
2022/06/19 09:32:41;;;;;;;15.90;5.90;;;;;;;32.21;36.65;99572.75;20736529;28;20041;-68
2022/06/19 09:43:31;;;;;;;15.32;6.57;;;;;;;32.25;36.13;99579.50;20739361;28;20076;-67
2022/06/19 09:53:42;;;;;;;18.60;6.97;;;;;;;32.51;36.06;99584.50;20735269;28;20058;-67
2022/06/19 10:04:21;;;;;;;12.80;5.97;;;;;;;32.68;35.23;99568.91;20738099;28;20046;-67
2022/06/19 10:14:32;;;;;;;;;;;;;;;32.58;30.78;99562.91;20779486;28;20068;-66
2022/06/19 10:24:46;;;;;;;12.40;5.20;;;;;;;33.15;29.04;99554.94;20817657;28;19928;-67
2022/06/19 10:35:15;;;;;;;14.82;5.65;;;;;;;33.03;29.68;99556.47;20818268;28;20049;-67
2022/06/19 10:45:41;;;;;;;14.18;5.55;;;;;;;32.84;30.20;99557.84;20817782;28;20472;-67
2022/06/19 10:55:49;;;;;;;17.42;6.00;;;;;;;33.52;28.88;99560.38;20794329;28;20053;-68
2022/06/19 11:05:58;;;;;;;13.80;5.28;;;;;;;33.36;30.43;99567.69;20732066;28;20052;-69
2022/06/19 11:16:03;;;;;;;11.60;5.05;;;;;;;33.33;29.99;99568.06;20785303;28;20041;-69
2022/06/19 11:26:07;;;;;;;14.57;5.63;;;;;;;33.26;30.72;99539.19;20814354;28;20057;-69
2022/06/19 11:36:24;;;;;;;13.57;4.93;;;;;;;34.05;29.31;99522.88;20813415;28;20058;-71
2022/06/19 11:46:26;;;;;;;12.60;4.93;;;;;;;34.05;28.21;99533.72;20813506;28;20071;-70
2022/06/19 11:56:35;;;;;;;11.63;5.47;;;;;;;33.99;28.35;99518.22;20812651;28;20136;-71
2022/06/19 12:06:45;;;;;;;14.82;5.32;;;;;;;34.27;27.67;99521.78;20814762;28;20049;-69
2022/06/19 12:17:13;;;;;;;13.90;5.85;;;;;;;33.92;27.97;99510.84;20754274;28;20477;-69
2022/06/19 12:27:19;;;;;;;17.98;5.47;;;;;;;34.48;27.31;99506.47;20728381;28;20045;-69
2022/06/19 12:37:23;;;;;;;14.73;5.55;;;;;;;34.87;27.20;99484.88;20727158;28;20089;-72
2022/06/19 12:47:46;;;;;;;11.88;5.05;;;;;;;34.18;27.04;99484.94;20726810;28;20057;-70
2022/06/19 12:57:57;;;;;;;14.63;4.97;;;;;;;34.65;27.37;99464.31;20727315;28;20050;-70
2022/06/19 13:08:11;;;;;;;13.65;5.45;;;;;;;34.75;26.95;99447.63;20799142;28;20049;-69
2022/06/19 13:18:33;;;;;;;16.65;5.38;;;;;;;34.72;26.55;99429.81;20807381;28;20061;-70
2022/06/19 13:28:55;;;;;;;12.17;5.23;;;;;;;35.16;26.85;99406.72;20816117;28;20050;-70
2022/06/19 13:39:05;;;;;;;;;;;;;;;34.95;27.05;99392.25;20823184;28;20425;-69
2022/06/19 13:49:18;;;;;;;12.45;5.20;;;;;;;35.41;26.99;99396.06;20821188;28;19921;-70
2022/06/19 13:59:42;;;;;;;11.00;4.65;;;;;;;35.71;26.17;99388.31;20819994;28;20088;-69
2022/06/19 14:10:09;;;;;;;15.13;5.10;;;;;;;35.68;24.86;99377.84;20817088;28;20422;-70
2022/06/19 14:20:21;;;;;;;11.80;5.70;;;;;;;35.54;24.53;99363.41;20735570;28;20533;-70
2022/06/19 14:30:32;;;;;;;10.65;4.65;;;;;;;36.06;23.73;99353.47;20735578;28;20045;-72
2022/06/19 14:40:38;;;;;;;9.45;4.78;;;;;;;36.14;24.33;99346.94;20735162;28;20050;-70
2022/06/19 14:51:21;;;;;;;11.40;4.80;;;;;;;36.06;24.26;99339.00;20735871;28;20129;-69
2022/06/19 15:01:27;;;;;;;12.95;4.43;;;;;;;36.43;21.59;99324.63;20733957;28;20419;-70
2022/06/19 15:11:32;;;;;;;13.35;4.93;;;;;;;36.05;21.58;99329.16;20748622;28;20501;-70
2022/06/19 15:21:56;;;;;;;13.18;4.25;;;;;;;36.56;21.44;99311.97;20814671;28;20057;-72
2022/06/19 15:31:57;;;;;;;16.08;4.28;;;;;;;36.38;21.46;99318.13;20814179;28;20052;-69
2022/06/19 15:42:02;;;;;;;12.52;3.95;;;;;;;36.45;20.65;99308.84;20812725;28;20049;-70
2022/06/19 15:52:04;;;;;;;11.20;4.70;;;;;;;36.70;21.49;99305.34;20812831;28;20053;-70
2022/06/19 16:02:19;;;;;;;15.18;4.78;;;;;;;36.69;20.85;99303.69;20811442;28;20103;-70
2022/06/19 16:12:30;;;;;;;13.73;4.95;;;;;;;36.29;21.11;99309.34;20787197;28;20419;-70
2022/06/19 16:22:31;;;;;;;14.20;4.90;;;;;;;36.41;21.64;99299.44;20729273;28;20243;-69
2022/06/19 16:32:48;;;;;;;12.75;4.97;;;;;;;36.60;22.53;99294.09;20728409;28;20050;-70
2022/06/19 16:53:12;;;;;;;11.43;4.40;;;;;;;36.34;22.55;99298.63;20728032;28;20057;-70
2022/06/19 17:03:54;;;;;;;11.32;4.50;;;;;;;35.92;23.39;99302.75;20735251;28;20173;-71
2022/06/19 17:14:07;;;;;;;15.18;5.07;;;;;;;36.01;23.16;99295.22;20780672;28;20055;-70
2022/06/19 17:24:24;;;;;;;16.23;5.03;;;;;;;36.04;23.01;99297.53;20790724;28;20054;-70
2022/06/19 17:34:26;;;;;;;10.82;4.75;;;;;;;35.92;24.25;99300.03;20741802;28;20107;-70
2022/06/19 17:44:32;;;;;;;10.90;4.40;;;;;;;35.81;24.98;99298.00;20740451;28;20060;-68
2022/06/19 17:54:37;;;;;;;13.95;5.03;;;;;;;35.43;25.58;99299.50;20762628;28;20104;-68
2022/06/19 18:05:06;;;;;;;9.17;4.83;;;;;;;35.24;26.43;99305.81;20738646;28;20058;-68
2022/06/19 18:18:42;;;;;;;14.45;6.05;;;;;;;34.84;28.32;99310.41;20783092;28;20494;-68
2022/06/19 18:25:37;;;;;;;13.70;5.72;;;;;;;34.39;30.33;99313.59;20814335;28;20719;-68
2022/06/19 18:35:40;;;;;;;;;;;;;;;33.67;33.75;99335.81;20834124;22;20498;-76
2022/06/19 18:45:41;;;;;;;13.98;5.90;;;;;;;32.76;34.01;99342.94;20898328;28;20381;-78
2022/06/19 18:55:43;;;;;;;;;;;;;;;32.39;37.28;99364.66;20904520;28;20068;-78
2022/06/19 19:05:46;;;;;;;18.50;6.10;;;;;;;30.20;45.64;99411.38;20854846;28;20289;-77
2022/06/19 19:15:51;;;;;;;25.05;6.47;;;;;;;28.93;50.06;99444.25;20819137;28;20414;-77
2022/06/19 19:25:55;;;;;;;15.75;5.93;;;;;;;27.94;51.40;99465.50;20838555;28;20131;-79
2022/06/19 19:35:57;;;;;;;14.13;5.60;;;;;;;27.39;52.59;99484.53;20881688;28;20449;-79
2022/06/19 19:46:14;;;;;;;18.65;5.25;;;;;;;26.91;54.41;99497.28;20898966;28;20056;-78
2022/06/19 19:56:19;;;;;;;20.70;5.20;;;;;;;26.55;54.37;99512.47;20882921;28;20053;-79
2022/06/19 20:16:41;;;;;;;13.40;4.70;;;;;;;25.76;55.62;99534.22;20885419;28;20045;-78
2022/06/19 20:26:49;;;;;;;14.65;4.75;;;;;;;25.60;56.53;99540.13;20879009;28;20262;-77
2022/06/19 20:36:51;;;;;;;15.05;5.05;;;;;;;25.23;58.40;99546.16;20895312;28;20049;-78
2022/06/19 20:46:53;;;;;;;13.82;4.72;;;;;;;25.19;58.73;99547.41;20879740;28;20064;-80
2022/06/19 20:56:55;;;;;;;17.17;4.65;;;;;;;25.13;59.82;99542.63;20896465;28;20053;-78
2022/06/19 21:06:57;;;;;;;11.60;4.70;;;;;;;25.00;60.47;99540.16;20894922;28;20049;-79
2022/06/19 21:16:59;;;;;;;15.27;5.35;;;;;;;24.85;61.40;99546.03;20832250;28;20073;-77
2022/06/19 21:27:03;;;;;;;14.02;4.53;;;;;;;24.75;62.93;99552.19;20814093;28;20076;-78
2022/06/19 21:37:05;;;;;;;13.38;5.05;;;;;;;24.70;63.57;99557.13;20874670;28;20486;-77
2022/06/19 21:47:06;;;;;;;14.05;4.90;;;;;;;24.55;65.34;99558.47;20900559;28;20094;-78
2022/06/19 21:57:08;;;;;;;19.08;5.47;;;;;;;24.55;65.97;99545.09;20892341;28;20106;-77
2022/06/19 22:07:12;;;;;;;14.88;4.97;;;;;;;24.28;68.64;99538.44;20894116;28;20098;-79
2022/06/19 22:17:13;;;;;;;15.77;5.30;;;;;;;24.26;69.84;99521.69;20914233;28;20457;-78
2022/06/19 22:27:19;;;;;;;15.70;5.57;;;;;;;24.09;71.22;99524.94;20913288;28;20420;-77
2022/06/19 22:37:24;;;;;;;13.80;5.18;;;;;;;24.03;72.08;99529.00;20911999;28;20045;-80
2022/06/19 22:47:31;;;;;;;13.63;5.30;;;;;;;23.97;72.95;99536.72;20895257;28;20569;-76
2022/06/19 22:57:41;;;;;;;13.95;5.70;;;;;;;23.86;74.45;99552.78;20911647;28;20067;-77
2022/06/19 23:07:44;;;;;;;14.48;5.20;;;;;;;23.98;73.13;99554.44;20920195;22;20045;-79
2022/06/19 23:17:46;;;;;;;13.40;5.03;;;;;;;23.93;74.85;99553.97;20905007;28;20045;-79
2022/06/19 23:39:29;;;;;;;13.60;5.10;;;;;;;23.60;77.18;99555.81;20908770;28;20040;-78
